sensor_id;sensor_type;location;lat;lon;timestamp;P1;durP1;ratioP1;P2;durP2;ratioP2
4601;SDS011;2313;48.552;9.370;2023-05-09T00:00:42;52.97;;;30.73;;
4601;SDS011;2313;48.552;9.370;2023-05-09T00:03:08;49.03;;;30.80;;
4601;SDS011;2313;48.552;9.370;2023-05-09T00:05:33;51.53;;;33.10;;
4601;SDS011;2313;48.552;9.370;2023-05-09T00:07:59;50.37;;;33.23;;
4601;SDS011;2313;48.552;9.370;2023-05-09T00:10:25;52.70;;;32.80;;
4601;SDS011;2313;48.552;9.370;2023-05-09T00:12:51;46.80;;;31.40;;
4601;SDS011;2313;48.552;9.370;2023-05-09T00:15:17;48.07;;;32.33;;
4601;SDS011;2313;48.552;9.370;2023-05-09T00:17:43;52.60;;;32.70;;
4601;SDS011;2313;48.552;9.370;2023-05-09T00:20:10;57.60;;;33.90;;
4601;SDS011;2313;48.552;9.370;2023-05-09T00:22:37;45.80;;;28.70;;
4601;SDS011;2313;48.552;9.370;2023-05-09T00:25:05;49.23;;;32.10;;
4601;SDS011;2313;48.552;9.370;2023-05-09T00:27:31;49.73;;;32.63;;
4601;SDS011;2313;48.552;9.370;2023-05-09T00:29:57;53.50;;;32.57;;
4601;SDS011;2313;48.552;9.370;2023-05-09T00:32:23;51.30;;;34.47;;
4601;SDS011;2313;48.552;9.370;2023-05-09T00:34:49;50.53;;;32.67;;
4601;SDS011;2313;48.552;9.370;2023-05-09T00:37:15;48.50;;;32.60;;
4601;SDS011;2313;48.552;9.370;2023-05-09T00:39:43;52.73;;;32.57;;
4601;SDS011;2313;48.552;9.370;2023-05-09T00:42:12;49.97;;;32.07;;
4601;SDS011;2313;48.552;9.370;2023-05-09T00:44:38;50.57;;;32.03;;
4601;SDS011;2313;48.552;9.370;2023-05-09T00:47:03;49.97;;;33.77;;
4601;SDS011;2313;48.552;9.370;2023-05-09T00:49:30;53.73;;;33.63;;
4601;SDS011;2313;48.552;9.370;2023-05-09T00:51:56;46.90;;;31.83;;
4601;SDS011;2313;48.552;9.370;2023-05-09T00:54:22;56.43;;;33.17;;
4601;SDS011;2313;48.552;9.370;2023-05-09T00:56:48;48.20;;;32.07;;
4601;SDS011;2313;48.552;9.370;2023-05-09T00:59:15;51.43;;;32.37;;
4601;SDS011;2313;48.552;9.370;2023-05-09T01:01:41;55.00;;;33.70;;
4601;SDS011;2313;48.552;9.370;2023-05-09T01:04:07;55.17;;;32.77;;
4601;SDS011;2313;48.552;9.370;2023-05-09T01:09:30;52.30;;;32.90;;
4601;SDS011;2313;48.552;9.370;2023-05-09T01:17:11;54.10;;;32.80;;
4601;SDS011;2313;48.552;9.370;2023-05-09T01:22:31;43.60;;;30.80;;
4601;SDS011;2313;48.552;9.370;2023-05-09T01:27:57;51.17;;;31.83;;
4601;SDS011;2313;48.552;9.370;2023-05-09T01:30:31;45.93;;;31.87;;
4601;SDS011;2313;48.552;9.370;2023-05-09T01:33:01;43.10;;;28.97;;
4601;SDS011;2313;48.552;9.370;2023-05-09T01:35:32;49.37;;;30.30;;
4601;SDS011;2313;48.552;9.370;2023-05-09T01:38:03;49.43;;;33.07;;
4601;SDS011;2313;48.552;9.370;2023-05-09T01:40:33;56.50;;;32.57;;
4601;SDS011;2313;48.552;9.370;2023-05-09T01:43:01;50.17;;;32.20;;
4601;SDS011;2313;48.552;9.370;2023-05-09T01:45:31;45.60;;;30.00;;
4601;SDS011;2313;48.552;9.370;2023-05-09T01:47:58;49.33;;;31.33;;
4601;SDS011;2313;48.552;9.370;2023-05-09T01:50:24;50.23;;;30.07;;
4601;SDS011;2313;48.552;9.370;2023-05-09T01:52:54;40.83;;;28.57;;
4601;SDS011;2313;48.552;9.370;2023-05-09T01:55:21;46.87;;;29.80;;
4601;SDS011;2313;48.552;9.370;2023-05-09T01:57:52;52.93;;;32.63;;
4601;SDS011;2313;48.552;9.370;2023-05-09T02:00:18;45.03;;;29.53;;
4601;SDS011;2313;48.552;9.370;2023-05-09T02:02:45;48.57;;;31.20;;
4601;SDS011;2313;48.552;9.370;2023-05-09T02:05:11;43.10;;;29.13;;
4601;SDS011;2313;48.552;9.370;2023-05-09T02:07:38;48.40;;;32.50;;
4601;SDS011;2313;48.552;9.370;2023-05-09T02:10:06;50.83;;;30.70;;
4601;SDS011;2313;48.552;9.370;2023-05-09T02:12:32;48.10;;;30.63;;
4601;SDS011;2313;48.552;9.370;2023-05-09T02:14:58;48.43;;;31.43;;
4601;SDS011;2313;48.552;9.370;2023-05-09T02:17:24;47.90;;;31.87;;
4601;SDS011;2313;48.552;9.370;2023-05-09T02:19:49;46.53;;;31.03;;
4601;SDS011;2313;48.552;9.370;2023-05-09T02:22:15;45.30;;;30.27;;
4601;SDS011;2313;48.552;9.370;2023-05-09T02:24:41;51.17;;;29.73;;
4601;SDS011;2313;48.552;9.370;2023-05-09T02:27:09;41.73;;;28.60;;
4601;SDS011;2313;48.552;9.370;2023-05-09T02:29:39;40.47;;;27.83;;
4601;SDS011;2313;48.552;9.370;2023-05-09T02:32:14;46.73;;;31.67;;
4601;SDS011;2313;48.552;9.370;2023-05-09T02:34:42;47.47;;;30.67;;
4601;SDS011;2313;48.552;9.370;2023-05-09T02:37:10;48.63;;;31.10;;
4601;SDS011;2313;48.552;9.370;2023-05-09T02:39:36;43.10;;;29.93;;
4601;SDS011;2313;48.552;9.370;2023-05-09T02:42:04;47.67;;;31.40;;
4601;SDS011;2313;48.552;9.370;2023-05-09T02:44:31;46.03;;;31.77;;
4601;SDS011;2313;48.552;9.370;2023-05-09T02:46:57;45.07;;;29.77;;
4601;SDS011;2313;48.552;9.370;2023-05-09T02:49:22;48.30;;;31.07;;
4601;SDS011;2313;48.552;9.370;2023-05-09T02:51:48;47.10;;;32.60;;
4601;SDS011;2313;48.552;9.370;2023-05-09T02:54:13;47.73;;;31.47;;
4601;SDS011;2313;48.552;9.370;2023-05-09T02:56:39;43.30;;;29.97;;
4601;SDS011;2313;48.552;9.370;2023-05-09T02:59:05;42.97;;;29.43;;
4601;SDS011;2313;48.552;9.370;2023-05-09T03:01:31;47.20;;;30.27;;
4601;SDS011;2313;48.552;9.370;2023-05-09T03:03:57;50.00;;;30.87;;
4601;SDS011;2313;48.552;9.370;2023-05-09T03:06:22;42.83;;;29.10;;
4601;SDS011;2313;48.552;9.370;2023-05-09T03:08:48;47.83;;;31.07;;
4601;SDS011;2313;48.552;9.370;2023-05-09T03:11:13;51.00;;;33.17;;
4601;SDS011;2313;48.552;9.370;2023-05-09T03:13:39;45.47;;;31.13;;
4601;SDS011;2313;48.552;9.370;2023-05-09T03:16:04;42.90;;;30.07;;
4601;SDS011;2313;48.552;9.370;2023-05-09T03:18:30;43.97;;;30.20;;
4601;SDS011;2313;48.552;9.370;2023-05-09T03:20:56;41.97;;;26.07;;
4601;SDS011;2313;48.552;9.370;2023-05-09T03:23:22;46.30;;;31.20;;
4601;SDS011;2313;48.552;9.370;2023-05-09T03:25:47;51.67;;;33.00;;
4601;SDS011;2313;48.552;9.370;2023-05-09T03:28:13;44.23;;;31.10;;
4601;SDS011;2313;48.552;9.370;2023-05-09T03:30:38;47.53;;;31.87;;
4601;SDS011;2313;48.552;9.370;2023-05-09T03:33:04;52.50;;;33.00;;
4601;SDS011;2313;48.552;9.370;2023-05-09T03:35:31;50.70;;;32.33;;
4601;SDS011;2313;48.552;9.370;2023-05-09T03:37:56;49.07;;;32.10;;
4601;SDS011;2313;48.552;9.370;2023-05-09T03:40:22;49.40;;;32.57;;
4601;SDS011;2313;48.552;9.370;2023-05-09T03:42:47;46.87;;;31.37;;
4601;SDS011;2313;48.552;9.370;2023-05-09T03:45:13;43.60;;;29.30;;
4601;SDS011;2313;48.552;9.370;2023-05-09T03:47:38;43.50;;;29.33;;
4601;SDS011;2313;48.552;9.370;2023-05-09T03:50:04;40.37;;;29.00;;
4601;SDS011;2313;48.552;9.370;2023-05-09T03:52:31;49.90;;;31.00;;
4601;SDS011;2313;48.552;9.370;2023-05-09T03:54:56;42.37;;;29.77;;
4601;SDS011;2313;48.552;9.370;2023-05-09T03:57:22;44.27;;;29.13;;
4601;SDS011;2313;48.552;9.370;2023-05-09T03:59:48;41.43;;;27.83;;
4601;SDS011;2313;48.552;9.370;2023-05-09T04:02:13;42.00;;;29.40;;
4601;SDS011;2313;48.552;9.370;2023-05-09T04:04:39;40.10;;;27.57;;
4601;SDS011;2313;48.552;9.370;2023-05-09T04:07:04;44.20;;;29.20;;
4601;SDS011;2313;48.552;9.370;2023-05-09T04:09:30;42.47;;;26.73;;
4601;SDS011;2313;48.552;9.370;2023-05-09T04:11:56;39.63;;;27.77;;
4601;SDS011;2313;48.552;9.370;2023-05-09T04:14:21;39.10;;;28.60;;
4601;SDS011;2313;48.552;9.370;2023-05-09T04:16:47;39.93;;;27.10;;
4601;SDS011;2313;48.552;9.370;2023-05-09T04:19:12;44.37;;;27.60;;
4601;SDS011;2313;48.552;9.370;2023-05-09T04:21:38;50.43;;;29.87;;
4601;SDS011;2313;48.552;9.370;2023-05-09T04:24:04;37.93;;;26.07;;
4601;SDS011;2313;48.552;9.370;2023-05-09T04:26:30;44.00;;;28.30;;
4601;SDS011;2313;48.552;9.370;2023-05-09T04:28:55;40.87;;;27.47;;
4601;SDS011;2313;48.552;9.370;2023-05-09T04:31:21;45.47;;;26.27;;
4601;SDS011;2313;48.552;9.370;2023-05-09T04:33:47;38.33;;;25.50;;
4601;SDS011;2313;48.552;9.370;2023-05-09T04:36:12;42.30;;;26.93;;
4601;SDS011;2313;48.552;9.370;2023-05-09T04:38:38;40.17;;;26.07;;
4601;SDS011;2313;48.552;9.370;2023-05-09T04:41:03;39.93;;;25.50;;
4601;SDS011;2313;48.552;9.370;2023-05-09T04:43:29;42.00;;;25.90;;
4601;SDS011;2313;48.552;9.370;2023-05-09T04:45:55;41.87;;;28.50;;
4601;SDS011;2313;48.552;9.370;2023-05-09T04:48:20;37.07;;;25.40;;
4601;SDS011;2313;48.552;9.370;2023-05-09T04:50:46;42.00;;;24.17;;
4601;SDS011;2313;48.552;9.370;2023-05-09T04:53:14;34.07;;;23.43;;
4601;SDS011;2313;48.552;9.370;2023-05-09T04:55:40;31.60;;;21.80;;
4601;SDS011;2313;48.552;9.370;2023-05-09T04:58:05;29.63;;;22.50;;
4601;SDS011;2313;48.552;9.370;2023-05-09T05:00:33;34.10;;;24.10;;
4601;SDS011;2313;48.552;9.370;2023-05-09T05:02:58;31.20;;;22.87;;
4601;SDS011;2313;48.552;9.370;2023-05-09T05:05:24;37.30;;;23.90;;
4601;SDS011;2313;48.552;9.370;2023-05-09T05:07:50;36.23;;;23.07;;
4601;SDS011;2313;48.552;9.370;2023-05-09T05:10:17;32.90;;;22.70;;
4601;SDS011;2313;48.552;9.370;2023-05-09T05:12:42;31.77;;;23.03;;
4601;SDS011;2313;48.552;9.370;2023-05-09T05:15:08;38.50;;;23.00;;
4601;SDS011;2313;48.552;9.370;2023-05-09T05:17:34;37.47;;;22.17;;
4601;SDS011;2313;48.552;9.370;2023-05-09T05:20:00;28.43;;;21.13;;
4601;SDS011;2313;48.552;9.370;2023-05-09T05:22:25;34.50;;;21.63;;
4601;SDS011;2313;48.552;9.370;2023-05-09T05:24:51;26.53;;;21.10;;
4601;SDS011;2313;48.552;9.370;2023-05-09T05:27:16;29.23;;;20.00;;
4601;SDS011;2313;48.552;9.370;2023-05-09T05:29:42;31.27;;;21.30;;
4601;SDS011;2313;48.552;9.370;2023-05-09T05:32:08;30.07;;;20.70;;
4601;SDS011;2313;48.552;9.370;2023-05-09T05:34:34;26.40;;;20.20;;
4601;SDS011;2313;48.552;9.370;2023-05-09T05:37:00;33.20;;;21.23;;
4601;SDS011;2313;48.552;9.370;2023-05-09T05:39:25;32.90;;;21.43;;
4601;SDS011;2313;48.552;9.370;2023-05-09T05:41:51;42.00;;;27.63;;
4601;SDS011;2313;48.552;9.370;2023-05-09T05:44:17;53.63;;;34.40;;
4601;SDS011;2313;48.552;9.370;2023-05-09T05:46:42;61.33;;;32.07;;
4601;SDS011;2313;48.552;9.370;2023-05-09T05:49:08;54.57;;;33.80;;
4601;SDS011;2313;48.552;9.370;2023-05-09T05:51:33;46.00;;;31.37;;
4601;SDS011;2313;48.552;9.370;2023-05-09T05:53:59;51.37;;;32.40;;
4601;SDS011;2313;48.552;9.370;2023-05-09T05:56:25;46.50;;;31.27;;
4601;SDS011;2313;48.552;9.370;2023-05-09T05:58:50;52.80;;;33.77;;
4601;SDS011;2313;48.552;9.370;2023-05-09T06:01:16;46.83;;;31.70;;
4601;SDS011;2313;48.552;9.370;2023-05-09T06:03:41;52.67;;;31.87;;
4601;SDS011;2313;48.552;9.370;2023-05-09T06:06:07;49.73;;;32.57;;
4601;SDS011;2313;48.552;9.370;2023-05-09T06:08:33;42.20;;;30.83;;
4601;SDS011;2313;48.552;9.370;2023-05-09T06:10:59;39.47;;;28.07;;
4601;SDS011;2313;48.552;9.370;2023-05-09T06:13:26;40.80;;;28.73;;
4601;SDS011;2313;48.552;9.370;2023-05-09T06:15:54;40.90;;;29.50;;
4601;SDS011;2313;48.552;9.370;2023-05-09T06:18:21;43.50;;;28.63;;
4601;SDS011;2313;48.552;9.370;2023-05-09T06:20:46;32.30;;;24.60;;
4601;SDS011;2313;48.552;9.370;2023-05-09T06:23:12;31.67;;;23.90;;
4601;SDS011;2313;48.552;9.370;2023-05-09T06:25:38;34.70;;;25.37;;
4601;SDS011;2313;48.552;9.370;2023-05-09T06:28:03;36.13;;;25.53;;
4601;SDS011;2313;48.552;9.370;2023-05-09T06:30:29;34.73;;;25.00;;
4601;SDS011;2313;48.552;9.370;2023-05-09T06:32:54;28.37;;;23.03;;
4601;SDS011;2313;48.552;9.370;2023-05-09T06:35:22;32.33;;;23.93;;
4601;SDS011;2313;48.552;9.370;2023-05-09T06:37:47;36.47;;;25.00;;
4601;SDS011;2313;48.552;9.370;2023-05-09T06:40:13;29.43;;;23.27;;
4601;SDS011;2313;48.552;9.370;2023-05-09T06:42:38;32.73;;;23.03;;
4601;SDS011;2313;48.552;9.370;2023-05-09T06:45:04;31.37;;;23.13;;
4601;SDS011;2313;48.552;9.370;2023-05-09T06:47:30;29.00;;;21.40;;
4601;SDS011;2313;48.552;9.370;2023-05-09T06:49:56;29.23;;;22.33;;
4601;SDS011;2313;48.552;9.370;2023-05-09T06:52:21;28.57;;;21.97;;
4601;SDS011;2313;48.552;9.370;2023-05-09T06:54:47;27.53;;;21.67;;
4601;SDS011;2313;48.552;9.370;2023-05-09T06:57:12;32.57;;;22.47;;
4601;SDS011;2313;48.552;9.370;2023-05-09T06:59:38;31.20;;;22.70;;
4601;SDS011;2313;48.552;9.370;2023-05-09T07:02:04;30.20;;;23.40;;
4601;SDS011;2313;48.552;9.370;2023-05-09T07:04:29;34.53;;;24.80;;
4601;SDS011;2313;48.552;9.370;2023-05-09T07:06:55;33.00;;;23.17;;
4601;SDS011;2313;48.552;9.370;2023-05-09T07:09:21;35.20;;;23.67;;
4601;SDS011;2313;48.552;9.370;2023-05-09T07:11:51;34.93;;;23.70;;
4601;SDS011;2313;48.552;9.370;2023-05-09T07:14:17;31.60;;;23.90;;
4601;SDS011;2313;48.552;9.370;2023-05-09T07:16:44;31.53;;;23.43;;
4601;SDS011;2313;48.552;9.370;2023-05-09T07:19:10;30.37;;;22.03;;
4601;SDS011;2313;48.552;9.370;2023-05-09T07:21:36;26.53;;;20.53;;
4601;SDS011;2313;48.552;9.370;2023-05-09T07:24:02;32.20;;;22.07;;
4601;SDS011;2313;48.552;9.370;2023-05-09T07:26:28;30.90;;;20.87;;
4601;SDS011;2313;48.552;9.370;2023-05-09T07:28:53;29.23;;;20.40;;
4601;SDS011;2313;48.552;9.370;2023-05-09T07:31:19;30.20;;;22.40;;
4601;SDS011;2313;48.552;9.370;2023-05-09T07:33:44;26.53;;;20.20;;
4601;SDS011;2313;48.552;9.370;2023-05-09T07:36:10;29.97;;;21.07;;
4601;SDS011;2313;48.552;9.370;2023-05-09T07:38:38;29.70;;;22.40;;
4601;SDS011;2313;48.552;9.370;2023-05-09T07:41:04;29.27;;;20.73;;
4601;SDS011;2313;48.552;9.370;2023-05-09T07:43:30;26.60;;;19.63;;
4601;SDS011;2313;48.552;9.370;2023-05-09T07:45:56;31.30;;;22.77;;
4601;SDS011;2313;48.552;9.370;2023-05-09T07:48:22;29.53;;;22.63;;
4601;SDS011;2313;48.552;9.370;2023-05-09T07:50:47;25.93;;;20.50;;
4601;SDS011;2313;48.552;9.370;2023-05-09T07:53:13;28.47;;;21.50;;
4601;SDS011;2313;48.552;9.370;2023-05-09T07:55:39;31.93;;;23.67;;
4601;SDS011;2313;48.552;9.370;2023-05-09T07:58:04;39.83;;;25.10;;
4601;SDS011;2313;48.552;9.370;2023-05-09T08:00:30;36.57;;;23.80;;
4601;SDS011;2313;48.552;9.370;2023-05-09T08:02:55;35.40;;;23.93;;
4601;SDS011;2313;48.552;9.370;2023-05-09T08:05:21;33.43;;;23.43;;
4601;SDS011;2313;48.552;9.370;2023-05-09T08:07:47;33.40;;;23.07;;
4601;SDS011;2313;48.552;9.370;2023-05-09T08:10:12;30.77;;;22.47;;
4601;SDS011;2313;48.552;9.370;2023-05-09T08:12:38;26.57;;;19.37;;
4601;SDS011;2313;48.552;9.370;2023-05-09T08:15:04;28.57;;;21.63;;
4601;SDS011;2313;48.552;9.370;2023-05-09T08:17:30;31.27;;;22.13;;
4601;SDS011;2313;48.552;9.370;2023-05-09T08:19:55;32.00;;;22.17;;
4601;SDS011;2313;48.552;9.370;2023-05-09T08:22:21;29.80;;;22.10;;
4601;SDS011;2313;48.552;9.370;2023-05-09T08:24:47;29.30;;;20.43;;
4601;SDS011;2313;48.552;9.370;2023-05-09T08:27:12;33.77;;;22.90;;
4601;SDS011;2313;48.552;9.370;2023-05-09T08:29:39;29.30;;;21.50;;
4601;SDS011;2313;48.552;9.370;2023-05-09T08:32:05;30.47;;;22.50;;
4601;SDS011;2313;48.552;9.370;2023-05-09T08:34:31;37.20;;;24.60;;
4601;SDS011;2313;48.552;9.370;2023-05-09T08:37:01;33.87;;;21.77;;
4601;SDS011;2313;48.552;9.370;2023-05-09T08:39:28;28.70;;;20.77;;
4601;SDS011;2313;48.552;9.370;2023-05-09T08:41:59;31.60;;;22.73;;
4601;SDS011;2313;48.552;9.370;2023-05-09T08:44:26;32.50;;;22.63;;
4601;SDS011;2313;48.552;9.370;2023-05-09T08:46:59;34.83;;;23.17;;
4601;SDS011;2313;48.552;9.370;2023-05-09T08:49:27;42.73;;;23.77;;
4601;SDS011;2313;48.552;9.370;2023-05-09T08:51:53;33.33;;;24.17;;
4601;SDS011;2313;48.552;9.370;2023-05-09T08:54:19;32.47;;;23.67;;
4601;SDS011;2313;48.552;9.370;2023-05-09T08:56:46;27.37;;;21.20;;
4601;SDS011;2313;48.552;9.370;2023-05-09T08:59:12;30.47;;;21.43;;
4601;SDS011;2313;48.552;9.370;2023-05-09T09:01:38;31.70;;;21.30;;
4601;SDS011;2313;48.552;9.370;2023-05-09T09:04:05;34.40;;;19.40;;
4601;SDS011;2313;48.552;9.370;2023-05-09T09:06:34;27.90;;;19.80;;
4601;SDS011;2313;48.552;9.370;2023-05-09T09:09:01;26.47;;;19.87;;
4601;SDS011;2313;48.552;9.370;2023-05-09T09:11:30;23.00;;;17.50;;
4601;SDS011;2313;48.552;9.370;2023-05-09T09:14:00;26.90;;;20.10;;
4601;SDS011;2313;48.552;9.370;2023-05-09T09:16:30;19.97;;;16.50;;
4601;SDS011;2313;48.552;9.370;2023-05-09T09:18:57;24.07;;;16.73;;
4601;SDS011;2313;48.552;9.370;2023-05-09T09:21:24;29.27;;;17.63;;
4601;SDS011;2313;48.552;9.370;2023-05-09T09:23:50;22.37;;;17.00;;
4601;SDS011;2313;48.552;9.370;2023-05-09T09:26:18;20.00;;;15.50;;
4601;SDS011;2313;48.552;9.370;2023-05-09T09:28:43;21.13;;;14.37;;
4601;SDS011;2313;48.552;9.370;2023-05-09T09:31:22;16.63;;;12.20;;
4601;SDS011;2313;48.552;9.370;2023-05-09T09:34:00;16.03;;;12.37;;
4601;SDS011;2313;48.552;9.370;2023-05-09T09:36:27;15.70;;;12.83;;
4601;SDS011;2313;48.552;9.370;2023-05-09T09:39:00;16.23;;;11.70;;
4601;SDS011;2313;48.552;9.370;2023-05-09T09:44:08;12.60;;;9.90;;
4601;SDS011;2313;48.552;9.370;2023-05-09T09:46:44;13.10;;;10.63;;
4601;SDS011;2313;48.552;9.370;2023-05-09T09:49:13;12.43;;;10.33;;
4601;SDS011;2313;48.552;9.370;2023-05-09T09:51:40;13.07;;;10.63;;
4601;SDS011;2313;48.552;9.370;2023-05-09T09:54:07;11.20;;;7.77;;
4601;SDS011;2313;48.552;9.370;2023-05-09T09:56:44;10.43;;;6.83;;
4601;SDS011;2313;48.552;9.370;2023-05-09T09:59:16;11.10;;;8.37;;
4601;SDS011;2313;48.552;9.370;2023-05-09T10:04:32;8.77;;;7.90;;
4601;SDS011;2313;48.552;9.370;2023-05-09T10:07:00;9.23;;;7.67;;
4601;SDS011;2313;48.552;9.370;2023-05-09T10:09:30;10.37;;;8.33;;
4601;SDS011;2313;48.552;9.370;2023-05-09T10:11:59;12.87;;;7.30;;
4601;SDS011;2313;48.552;9.370;2023-05-09T10:14:27;11.57;;;6.90;;
4601;SDS011;2313;48.552;9.370;2023-05-09T10:16:55;9.93;;;6.57;;
4601;SDS011;2313;48.552;9.370;2023-05-09T10:19:22;10.97;;;7.60;;
4601;SDS011;2313;48.552;9.370;2023-05-09T10:21:55;6.77;;;6.07;;
4601;SDS011;2313;48.552;9.370;2023-05-09T10:27:08;8.43;;;5.80;;
4601;SDS011;2313;48.552;9.370;2023-05-09T10:29:54;6.20;;;5.60;;
4601;SDS011;2313;48.552;9.370;2023-05-09T10:32:30;7.13;;;6.10;;
4601;SDS011;2313;48.552;9.370;2023-05-09T10:35:03;8.80;;;6.33;;
4601;SDS011;2313;48.552;9.370;2023-05-09T10:37:30;11.20;;;5.90;;
4601;SDS011;2313;48.552;9.370;2023-05-09T10:39:56;13.33;;;6.43;;
4601;SDS011;2313;48.552;9.370;2023-05-09T10:42:24;9.20;;;6.37;;
4601;SDS011;2313;48.552;9.370;2023-05-09T10:44:50;7.77;;;6.30;;
4601;SDS011;2313;48.552;9.370;2023-05-09T10:47:17;7.13;;;4.93;;
4601;SDS011;2313;48.552;9.370;2023-05-09T10:49:44;14.87;;;5.20;;
4601;SDS011;2313;48.552;9.370;2023-05-09T10:52:10;12.33;;;4.97;;
4601;SDS011;2313;48.552;9.370;2023-05-09T10:54:36;5.63;;;4.30;;
4601;SDS011;2313;48.552;9.370;2023-05-09T10:57:02;5.00;;;4.50;;
4601;SDS011;2313;48.552;9.370;2023-05-09T10:59:40;4.97;;;4.07;;
4601;SDS011;2313;48.552;9.370;2023-05-09T11:02:11;5.50;;;3.70;;
4601;SDS011;2313;48.552;9.370;2023-05-09T11:04:38;7.23;;;4.10;;
4601;SDS011;2313;48.552;9.370;2023-05-09T11:07:06;6.37;;;3.20;;
4601;SDS011;2313;48.552;9.370;2023-05-09T11:09:51;5.60;;;3.43;;
4601;SDS011;2313;48.552;9.370;2023-05-09T11:12:30;3.63;;;2.80;;
4601;SDS011;2313;48.552;9.370;2023-05-09T11:15:03;3.53;;;3.23;;
4601;SDS011;2313;48.552;9.370;2023-05-09T11:17:30;4.00;;;3.00;;
4601;SDS011;2313;48.552;9.370;2023-05-09T11:20:05;5.80;;;3.53;;
4601;SDS011;2313;48.552;9.370;2023-05-09T11:22:42;4.40;;;2.90;;
4601;SDS011;2313;48.552;9.370;2023-05-09T11:25:09;3.53;;;3.17;;
4601;SDS011;2313;48.552;9.370;2023-05-09T11:30:06;2.70;;;2.50;;
4601;SDS011;2313;48.552;9.370;2023-05-09T11:32:40;2.90;;;2.70;;
4601;SDS011;2313;48.552;9.370;2023-05-09T11:35:08;3.17;;;2.87;;
4601;SDS011;2313;48.552;9.370;2023-05-09T11:38:09;3.17;;;2.77;;
4601;SDS011;2313;48.552;9.370;2023-05-09T11:40:29;3.33;;;3.13;;
4601;SDS011;2313;48.552;9.370;2023-05-09T11:42:56;4.60;;;2.67;;
4601;SDS011;2313;48.552;9.370;2023-05-09T11:45:23;2.80;;;2.60;;
4601;SDS011;2313;48.552;9.370;2023-05-09T11:47:54;8.47;;;3.70;;
4601;SDS011;2313;48.552;9.370;2023-05-09T11:50:20;5.10;;;3.10;;
4601;SDS011;2313;48.552;9.370;2023-05-09T11:52:47;3.70;;;2.60;;
4601;SDS011;2313;48.552;9.370;2023-05-09T11:55:14;4.10;;;3.23;;
4601;SDS011;2313;48.552;9.370;2023-05-09T11:57:48;3.40;;;3.00;;
4601;SDS011;2313;48.552;9.370;2023-05-09T12:00:16;2.57;;;2.37;;
4601;SDS011;2313;48.552;9.370;2023-05-09T12:02:49;3.07;;;2.77;;
4601;SDS011;2313;48.552;9.370;2023-05-09T12:05:15;3.03;;;2.60;;
4601;SDS011;2313;48.552;9.370;2023-05-09T12:07:43;7.37;;;2.40;;
4601;SDS011;2313;48.552;9.370;2023-05-09T12:10:13;3.23;;;2.93;;
4601;SDS011;2313;48.552;9.370;2023-05-09T12:12:43;3.10;;;2.40;;
4601;SDS011;2313;48.552;9.370;2023-05-09T12:15:13;4.00;;;2.93;;
4601;SDS011;2313;48.552;9.370;2023-05-09T12:17:41;2.80;;;2.60;;
4601;SDS011;2313;48.552;9.370;2023-05-09T12:20:07;10.03;;;2.50;;
4601;SDS011;2313;48.552;9.370;2023-05-09T12:22:34;4.63;;;2.60;;
4601;SDS011;2313;48.552;9.370;2023-05-09T12:25:03;2.30;;;2.13;;
4601;SDS011;2313;48.552;9.370;2023-05-09T12:27:31;8.37;;;2.20;;
4601;SDS011;2313;48.552;9.370;2023-05-09T12:29:59;5.90;;;3.13;;
4601;SDS011;2313;48.552;9.370;2023-05-09T12:32:25;2.40;;;2.20;;
4601;SDS011;2313;48.552;9.370;2023-05-09T12:34:56;5.23;;;2.70;;
4601;SDS011;2313;48.552;9.370;2023-05-09T12:37:22;3.53;;;2.30;;
4601;SDS011;2313;48.552;9.370;2023-05-09T12:42:33;3.37;;;2.33;;
4601;SDS011;2313;48.552;9.370;2023-05-09T12:45:02;1.97;;;1.87;;
4601;SDS011;2313;48.552;9.370;2023-05-09T12:47:29;2.53;;;2.30;;
4601;SDS011;2313;48.552;9.370;2023-05-09T12:49:59;3.00;;;2.80;;
4601;SDS011;2313;48.552;9.370;2023-05-09T12:52:39;3.23;;;2.57;;
4601;SDS011;2313;48.552;9.370;2023-05-09T12:55:07;2.43;;;2.23;;
4601;SDS011;2313;48.552;9.370;2023-05-09T12:57:37;3.13;;;2.50;;
4601;SDS011;2313;48.552;9.370;2023-05-09T13:00:05;6.47;;;2.10;;
4601;SDS011;2313;48.552;9.370;2023-05-09T13:02:36;4.50;;;2.13;;
4601;SDS011;2313;48.552;9.370;2023-05-09T13:05:07;3.63;;;1.93;;
4601;SDS011;2313;48.552;9.370;2023-05-09T13:07:43;4.57;;;2.13;;
4601;SDS011;2313;48.552;9.370;2023-05-09T13:10:14;2.37;;;2.17;;
4601;SDS011;2313;48.552;9.370;2023-05-09T13:12:43;5.57;;;2.37;;
4601;SDS011;2313;48.552;9.370;2023-05-09T13:15:11;3.20;;;2.30;;
4601;SDS011;2313;48.552;9.370;2023-05-09T13:17:37;4.97;;;2.87;;
4601;SDS011;2313;48.552;9.370;2023-05-09T13:20:03;1.63;;;1.53;;
4601;SDS011;2313;48.552;9.370;2023-05-09T13:22:29;2.50;;;2.30;;
4601;SDS011;2313;48.552;9.370;2023-05-09T13:24:55;2.80;;;2.00;;
4601;SDS011;2313;48.552;9.370;2023-05-09T13:27:21;8.50;;;2.50;;
4601;SDS011;2313;48.552;9.370;2023-05-09T13:29:47;2.20;;;2.00;;
4601;SDS011;2313;48.552;9.370;2023-05-09T13:32:13;2.20;;;2.10;;
4601;SDS011;2313;48.552;9.370;2023-05-09T13:34:39;2.70;;;2.30;;
4601;SDS011;2313;48.552;9.370;2023-05-09T13:37:05;3.67;;;2.10;;
4601;SDS011;2313;48.552;9.370;2023-05-09T13:39:30;2.73;;;2.20;;
4601;SDS011;2313;48.552;9.370;2023-05-09T13:41:56;3.23;;;2.00;;
4601;SDS011;2313;48.552;9.370;2023-05-09T13:44:22;5.90;;;2.37;;
4601;SDS011;2313;48.552;9.370;2023-05-09T13:46:50;1.87;;;1.73;;
4601;SDS011;2313;48.552;9.370;2023-05-09T13:49:16;2.17;;;2.07;;
4601;SDS011;2313;48.552;9.370;2023-05-09T13:51:43;7.43;;;2.10;;
4601;SDS011;2313;48.552;9.370;2023-05-09T13:54:09;2.50;;;2.00;;
4601;SDS011;2313;48.552;9.370;2023-05-09T13:56:40;2.23;;;2.13;;
4601;SDS011;2313;48.552;9.370;2023-05-09T13:59:07;4.00;;;2.43;;
4601;SDS011;2313;48.552;9.370;2023-05-09T14:01:33;1.80;;;1.70;;
4601;SDS011;2313;48.552;9.370;2023-05-09T14:03:59;2.80;;;2.10;;
4601;SDS011;2313;48.552;9.370;2023-05-09T14:06:24;2.20;;;2.10;;
4601;SDS011;2313;48.552;9.370;2023-05-09T14:08:50;12.10;;;2.00;;
4601;SDS011;2313;48.552;9.370;2023-05-09T14:11:16;1.90;;;1.80;;
4601;SDS011;2313;48.552;9.370;2023-05-09T14:13:41;3.17;;;1.90;;
4601;SDS011;2313;48.552;9.370;2023-05-09T14:16:07;3.80;;;2.37;;
4601;SDS011;2313;48.552;9.370;2023-05-09T14:18:33;4.13;;;2.47;;
4601;SDS011;2313;48.552;9.370;2023-05-09T14:20:59;3.03;;;2.60;;
4601;SDS011;2313;48.552;9.370;2023-05-09T14:23:25;7.07;;;2.70;;
4601;SDS011;2313;48.552;9.370;2023-05-09T14:25:50;4.37;;;1.97;;
4601;SDS011;2313;48.552;9.370;2023-05-09T14:28:16;9.73;;;2.53;;
4601;SDS011;2313;48.552;9.370;2023-05-09T14:30:42;2.60;;;2.40;;
4601;SDS011;2313;48.552;9.370;2023-05-09T14:33:08;3.50;;;2.60;;
4601;SDS011;2313;48.552;9.370;2023-05-09T14:35:33;2.77;;;2.53;;
4601;SDS011;2313;48.552;9.370;2023-05-09T14:37:59;4.80;;;3.10;;
4601;SDS011;2313;48.552;9.370;2023-05-09T14:40:25;5.57;;;2.70;;
4601;SDS011;2313;48.552;9.370;2023-05-09T14:43:00;4.13;;;2.20;;
4601;SDS011;2313;48.552;9.370;2023-05-09T14:45:29;2.60;;;2.40;;
4601;SDS011;2313;48.552;9.370;2023-05-09T14:47:57;2.23;;;2.13;;
4601;SDS011;2313;48.552;9.370;2023-05-09T14:50:23;2.30;;;2.10;;
4601;SDS011;2313;48.552;9.370;2023-05-09T14:52:48;2.27;;;2.07;;
4601;SDS011;2313;48.552;9.370;2023-05-09T14:55:15;3.73;;;2.27;;
4601;SDS011;2313;48.552;9.370;2023-05-09T14:57:46;2.63;;;2.40;;
4601;SDS011;2313;48.552;9.370;2023-05-09T15:00:13;5.30;;;2.40;;
4601;SDS011;2313;48.552;9.370;2023-05-09T15:02:40;3.30;;;2.17;;
4601;SDS011;2313;48.552;9.370;2023-05-09T15:05:06;5.00;;;2.47;;
4601;SDS011;2313;48.552;9.370;2023-05-09T15:07:32;4.00;;;2.30;;
4601;SDS011;2313;48.552;9.370;2023-05-09T15:09:58;2.87;;;2.57;;
4601;SDS011;2313;48.552;9.370;2023-05-09T15:12:24;6.13;;;2.90;;
4601;SDS011;2313;48.552;9.370;2023-05-09T15:14:49;4.00;;;3.53;;
4601;SDS011;2313;48.552;9.370;2023-05-09T15:17:18;3.37;;;3.07;;
4601;SDS011;2313;48.552;9.370;2023-05-09T15:19:46;4.33;;;2.70;;
4601;SDS011;2313;48.552;9.370;2023-05-09T15:22:12;3.87;;;2.67;;
4601;SDS011;2313;48.552;9.370;2023-05-09T15:24:38;2.73;;;2.53;;